sensor_id;sensor_type;location;lat;lon;timestamp;pressure;altitude;pressure_sealevel;temperature;humidity
74524;BME280;63074;44.696;10.358;2023-08-31T00:00:49;99545.13;;;30.64;53.37
74524;BME280;63074;44.696;10.358;2023-08-31T00:03:17;99550.19;;;29.87;54.95
74524;BME280;63074;44.696;10.358;2023-08-31T00:05:44;99551.34;;;30.16;53.89
74524;BME280;63074;44.696;10.358;2023-08-31T00:08:11;99561.41;;;29.15;56.62
74524;BME280;63074;44.696;10.358;2023-08-31T00:10:37;99567.22;;;29.60;56.41
74524;BME280;63074;44.696;10.358;2023-08-31T00:13:04;99564.47;;;29.10;56.31
74524;BME280;63074;44.696;10.358;2023-08-31T00:15:32;99579.91;;;29.11;57.43
74524;BME280;63074;44.696;10.358;2023-08-31T00:18:01;99570.03;;;29.37;55.80
74524;BME280;63074;44.696;10.358;2023-08-31T00:20:30;99573.22;;;29.39;56.54
74524;BME280;63074;44.696;10.358;2023-08-31T00:22:56;99571.72;;;29.71;55.14
74524;BME280;63074;44.696;10.358;2023-08-31T00:25:23;99585.31;;;29.04;58.06
74524;BME280;63074;44.696;10.358;2023-08-31T00:27:49;99570.78;;;29.60;55.24
74524;BME280;63074;44.696;10.358;2023-08-31T00:30:18;99562.38;;;30.13;53.71
74524;BME280;63074;44.696;10.358;2023-08-31T00:32:44;99557.03;;;30.68;52.46
74524;BME280;63074;44.696;10.358;2023-08-31T00:35:13;99575.03;;;29.54;55.86
74524;BME280;63074;44.696;10.358;2023-08-31T00:37:39;99556.72;;;30.02;53.88
74524;BME280;63074;44.696;10.358;2023-08-31T00:40:06;99569.38;;;29.47;55.97
74524;BME280;63074;44.696;10.358;2023-08-31T00:42:34;99572.03;;;29.40;56.33
74524;BME280;63074;44.696;10.358;2023-08-31T00:45:00;99571.41;;;29.50;54.80
74524;BME280;63074;44.696;10.358;2023-08-31T00:47:26;99575.13;;;29.35;56.34
74524;BME280;63074;44.696;10.358;2023-08-31T00:49:53;99569.38;;;29.73;55.12
74524;BME280;63074;44.696;10.358;2023-08-31T00:52:20;99569.34;;;30.00;53.67
74524;BME280;63074;44.696;10.358;2023-08-31T00:54:46;99575.50;;;29.33;55.96
74524;BME280;63074;44.696;10.358;2023-08-31T00:57:13;99576.31;;;29.60;56.00
74524;BME280;63074;44.696;10.358;2023-08-31T00:59:39;99572.19;;;29.77;54.75
74524;BME280;63074;44.696;10.358;2023-08-31T01:06:00;99579.75;;;29.80;54.88
74524;BME280;63074;44.696;10.358;2023-08-31T01:08:40;99591.78;;;29.38;56.03
74524;BME280;63074;44.696;10.358;2023-08-31T01:14:18;99588.19;;;29.61;55.85
74524;BME280;63074;44.696;10.358;2023-08-31T01:16:48;99582.97;;;29.55;54.99
74524;BME280;63074;44.696;10.358;2023-08-31T01:22:16;99592.31;;;29.44;55.79
74524;BME280;63074;44.696;10.358;2023-08-31T01:24:45;99592.06;;;29.56;55.83
74524;BME280;63074;44.696;10.358;2023-08-31T01:27:11;99595.00;;;29.40;55.93
74524;BME280;63074;44.696;10.358;2023-08-31T01:29:38;99590.75;;;29.73;54.81
74524;BME280;63074;44.696;10.358;2023-08-31T01:32:07;99592.28;;;29.70;55.09
74524;BME280;63074;44.696;10.358;2023-08-31T01:34:34;99595.56;;;29.27;56.16
74524;BME280;63074;44.696;10.358;2023-08-31T01:37:10;99595.06;;;29.44;55.69
74524;BME280;63074;44.696;10.358;2023-08-31T01:39:49;99594.44;;;30.14;53.97
74524;BME280;63074;44.696;10.358;2023-08-31T01:42:18;99608.03;;;29.40;56.65
74524;BME280;63074;44.696;10.358;2023-08-31T01:44:46;99602.13;;;29.68;54.96
74524;BME280;63074;44.696;10.358;2023-08-31T01:47:14;99609.75;;;29.48;55.26
74524;BME280;63074;44.696;10.358;2023-08-31T01:49:42;99621.59;;;29.48;55.87
74524;BME280;63074;44.696;10.358;2023-08-31T01:52:09;99610.13;;;29.73;55.01
74524;BME280;63074;44.696;10.358;2023-08-31T01:54:36;99625.34;;;29.10;57.02
74524;BME280;63074;44.696;10.358;2023-08-31T01:57:03;99632.94;;;28.94;58.30
74524;BME280;63074;44.696;10.358;2023-08-31T01:59:30;99621.59;;;28.99;57.68
74524;BME280;63074;44.696;10.358;2023-08-31T02:01:56;99627.25;;;29.55;56.92
74524;BME280;63074;44.696;10.358;2023-08-31T02:04:23;99635.97;;;29.08;59.23
74524;BME280;63074;44.696;10.358;2023-08-31T02:06:49;99638.53;;;28.55;59.71
74524;BME280;63074;44.696;10.358;2023-08-31T02:09:15;99657.56;;;28.80;60.88
74524;BME280;63074;44.696;10.358;2023-08-31T02:11:42;99651.84;;;29.11;59.16
74524;BME280;63074;44.696;10.358;2023-08-31T02:14:08;99661.78;;;28.74;61.20
74524;BME280;63074;44.696;10.358;2023-08-31T02:16:35;99665.72;;;28.73;61.40
74524;BME280;63074;44.696;10.358;2023-08-31T02:19:01;99669.63;;;28.72;61.26
74524;BME280;63074;44.696;10.358;2023-08-31T02:21:27;99671.91;;;28.66;61.32
74524;BME280;63074;44.696;10.358;2023-08-31T02:23:53;99689.81;;;27.99;64.90
74524;BME280;63074;44.696;10.358;2023-08-31T02:26:20;99679.41;;;28.85;62.49
74524;BME280;63074;44.696;10.358;2023-08-31T02:28:47;99659.63;;;29.29;59.08
74524;BME280;63074;44.696;10.358;2023-08-31T02:31:16;99672.78;;;29.35;59.30
74524;BME280;63074;44.696;10.358;2023-08-31T02:33:42;99649.69;;;30.30;54.75
74524;BME280;63074;44.696;10.358;2023-08-31T02:36:09;99643.25;;;30.55;53.21
74524;BME280;63074;44.696;10.358;2023-08-31T02:38:35;99723.19;;;26.99;73.29
74524;BME280;63074;44.696;10.358;2023-08-31T02:41:01;99748.25;;;28.01;71.42
74524;BME280;63074;44.696;10.358;2023-08-31T02:43:27;99682.38;;;30.17;58.38
74524;BME280;63074;44.696;10.358;2023-08-31T02:46:03;99691.28;;;29.31;60.34
74524;BME280;63074;44.696;10.358;2023-08-31T02:48:31;99686.13;;;30.02;58.33
74524;BME280;63074;44.696;10.358;2023-08-31T02:50:58;99654.97;;;30.42;55.40
74524;BME280;63074;44.696;10.358;2023-08-31T02:53:29;99646.22;;;30.73;53.65
74524;BME280;63074;44.696;10.358;2023-08-31T02:55:56;99649.00;;;30.73;53.53
74524;BME280;63074;44.696;10.358;2023-08-31T02:58:23;99647.19;;;30.54;53.72
74524;BME280;63074;44.696;10.358;2023-08-31T03:00:49;99661.56;;;30.00;55.50
74524;BME280;63074;44.696;10.358;2023-08-31T03:03:16;99688.53;;;29.08;59.47
74524;BME280;63074;44.696;10.358;2023-08-31T03:05:43;99700.56;;;29.19;60.97
74524;BME280;63074;44.696;10.358;2023-08-31T03:08:09;99690.25;;;29.88;58.35
74524;BME280;63074;44.696;10.358;2023-08-31T03:10:36;99690.69;;;29.64;58.53
74524;BME280;63074;44.696;10.358;2023-08-31T03:13:03;99681.16;;;29.62;58.31
74524;BME280;63074;44.696;10.358;2023-08-31T03:15:31;99674.91;;;29.95;56.73
74524;BME280;63074;44.696;10.358;2023-08-31T03:17:58;99671.22;;;29.87;56.67
74524;BME280;63074;44.696;10.358;2023-08-31T03:20:24;99679.88;;;29.82;57.55
74524;BME280;63074;44.696;10.358;2023-08-31T03:22:50;99668.31;;;30.33;55.32
74524;BME280;63074;44.696;10.358;2023-08-31T03:25:16;99661.81;;;30.51;54.22
74524;BME280;63074;44.696;10.358;2023-08-31T03:27:44;99666.31;;;30.63;53.64
74524;BME280;63074;44.696;10.358;2023-08-31T03:30:10;99677.41;;;30.00;56.33
74524;BME280;63074;44.696;10.358;2023-08-31T03:32:36;99688.97;;;29.56;59.15
74524;BME280;63074;44.696;10.358;2023-08-31T03:35:03;99707.59;;;29.36;60.74
74524;BME280;63074;44.696;10.358;2023-08-31T03:37:30;99709.13;;;29.34;60.84
74524;BME280;63074;44.696;10.358;2023-08-31T03:39:56;99717.50;;;28.95;63.51
74524;BME280;63074;44.696;10.358;2023-08-31T03:42:22;99714.25;;;29.54;60.67
74524;BME280;63074;44.696;10.358;2023-08-31T03:44:48;99698.69;;;30.55;56.05
74524;BME280;63074;44.696;10.358;2023-08-31T03:47:14;99684.56;;;30.64;54.40
74524;BME280;63074;44.696;10.358;2023-08-31T03:49:40;99686.50;;;30.60;54.79
74524;BME280;63074;44.696;10.358;2023-08-31T03:52:07;99698.00;;;30.32;55.80
74524;BME280;63074;44.696;10.358;2023-08-31T03:54:33;99695.91;;;30.22;56.36
74524;BME280;63074;44.696;10.358;2023-08-31T03:56:59;99695.88;;;30.52;55.16
74524;BME280;63074;44.696;10.358;2023-08-31T03:59:25;99701.28;;;30.41;55.54
74524;BME280;63074;44.696;10.358;2023-08-31T04:01:51;99699.97;;;30.02;56.76
74524;BME280;63074;44.696;10.358;2023-08-31T04:04:17;99708.34;;;29.82;57.42
74524;BME280;63074;44.696;10.358;2023-08-31T04:06:43;99733.00;;;28.80;62.45
74524;BME280;63074;44.696;10.358;2023-08-31T04:09:11;99734.19;;;29.21;61.54
74524;BME280;63074;44.696;10.358;2023-08-31T04:11:37;99752.22;;;28.93;64.56
74524;BME280;63074;44.696;10.358;2023-08-31T04:14:03;99758.91;;;28.53;67.26
74524;BME280;63074;44.696;10.358;2023-08-31T04:16:29;99772.56;;;27.95;69.20
74524;BME280;63074;44.696;10.358;2023-08-31T04:18:56;99768.38;;;28.52;66.96
74524;BME280;63074;44.696;10.358;2023-08-31T04:21:22;99777.31;;;28.45;66.93
74524;BME280;63074;44.696;10.358;2023-08-31T04:23:48;99783.72;;;28.49;67.31
74524;BME280;63074;44.696;10.358;2023-08-31T04:26:14;99783.69;;;28.84;65.35
74524;BME280;63074;44.696;10.358;2023-08-31T04:28:43;99784.59;;;28.73;66.07
74524;BME280;63074;44.696;10.358;2023-08-31T04:31:10;99780.16;;;28.68;64.82
74524;BME280;63074;44.696;10.358;2023-08-31T04:33:38;99787.91;;;28.43;66.29
74524;BME280;63074;44.696;10.358;2023-08-31T04:36:05;99801.91;;;28.35;67.41
74524;BME280;63074;44.696;10.358;2023-08-31T04:38:38;99793.06;;;28.99;64.86
74524;BME280;63074;44.696;10.358;2023-08-31T04:41:04;99774.47;;;29.61;61.37
74524;BME280;63074;44.696;10.358;2023-08-31T04:43:30;99801.97;;;28.54;66.81
74524;BME280;63074;44.696;10.358;2023-08-31T04:45:57;99808.31;;;28.54;67.39
74524;BME280;63074;44.696;10.358;2023-08-31T04:48:23;99816.81;;;28.30;67.72
74524;BME280;63074;44.696;10.358;2023-08-31T04:50:49;99818.81;;;28.30;68.09
74524;BME280;63074;44.696;10.358;2023-08-31T04:53:16;99833.47;;;28.18;69.46
74524;BME280;63074;44.696;10.358;2023-08-31T04:55:42;99809.88;;;28.90;64.98
74524;BME280;63074;44.696;10.358;2023-08-31T04:58:08;99823.13;;;28.66;66.03
74524;BME280;63074;44.696;10.358;2023-08-31T05:00:34;99830.97;;;28.44;67.62
74524;BME280;63074;44.696;10.358;2023-08-31T05:03:00;99834.81;;;28.75;66.59
74524;BME280;63074;44.696;10.358;2023-08-31T05:05:26;99826.81;;;28.89;66.00
74524;BME280;63074;44.696;10.358;2023-08-31T05:07:53;99816.53;;;29.28;63.77
74524;BME280;63074;44.696;10.358;2023-08-31T05:10:19;99806.28;;;29.29;62.26
74524;BME280;63074;44.696;10.358;2023-08-31T05:12:45;99815.34;;;29.06;64.04
74524;BME280;63074;44.696;10.358;2023-08-31T05:15:11;99815.19;;;28.99;64.04
74524;BME280;63074;44.696;10.358;2023-08-31T05:17:37;99840.88;;;28.45;67.96
74524;BME280;63074;44.696;10.358;2023-08-31T05:20:04;99842.28;;;28.55;68.74
74524;BME280;63074;44.696;10.358;2023-08-31T05:22:30;99827.75;;;28.77;65.00
74524;BME280;63074;44.696;10.358;2023-08-31T05:24:57;99824.44;;;29.68;62.57
74524;BME280;63074;44.696;10.358;2023-08-31T05:27:23;99827.56;;;29.44;64.05
74524;BME280;63074;44.696;10.358;2023-08-31T05:29:49;99830.16;;;29.37;63.25
74524;BME280;63074;44.696;10.358;2023-08-31T05:32:15;99817.03;;;30.21;60.60
74524;BME280;63074;44.696;10.358;2023-08-31T05:34:41;99828.19;;;29.56;63.37
74524;BME280;63074;44.696;10.358;2023-08-31T05:37:07;99860.59;;;28.98;67.50
74524;BME280;63074;44.696;10.358;2023-08-31T05:39:34;99839.56;;;29.74;64.57
74524;BME280;63074;44.696;10.358;2023-08-31T05:42:00;99856.66;;;29.38;66.18
74524;BME280;63074;44.696;10.358;2023-08-31T05:44:27;99854.78;;;29.22;66.14
74524;BME280;63074;44.696;10.358;2023-08-31T05:46:53;99889.59;;;27.75;75.06
74524;BME280;63074;44.696;10.358;2023-08-31T05:49:19;99891.22;;;28.54;73.13
74524;BME280;63074;44.696;10.358;2023-08-31T05:51:45;99873.13;;;29.31;68.93
74524;BME280;63074;44.696;10.358;2023-08-31T05:54:11;99857.22;;;29.66;65.24
74524;BME280;63074;44.696;10.358;2023-08-31T05:56:39;99870.72;;;28.90;67.25
74524;BME280;63074;44.696;10.358;2023-08-31T05:59:06;99874.00;;;29.35;67.98
74524;BME280;63074;44.696;10.358;2023-08-31T06:01:34;99859.50;;;30.03;62.77
74524;BME280;63074;44.696;10.358;2023-08-31T06:04:00;99857.19;;;30.58;62.28
74524;BME280;63074;44.696;10.358;2023-08-31T06:06:26;99860.53;;;30.70;62.00
74524;BME280;63074;44.696;10.358;2023-08-31T06:08:52;99872.75;;;29.94;64.96
74524;BME280;63074;44.696;10.358;2023-08-31T06:11:20;99859.63;;;30.63;60.80
74524;BME280;63074;44.696;10.358;2023-08-31T06:13:47;99860.97;;;30.72;59.16
74524;BME280;63074;44.696;10.358;2023-08-31T06:16:13;99856.41;;;30.87;58.33
74524;BME280;63074;44.696;10.358;2023-08-31T06:18:39;99853.00;;;31.01;58.63
74524;BME280;63074;44.696;10.358;2023-08-31T06:21:06;99865.56;;;30.91;60.78
74524;BME280;63074;44.696;10.358;2023-08-31T06:23:32;99864.41;;;31.22;59.82
74524;BME280;63074;44.696;10.358;2023-08-31T06:25:58;99876.81;;;31.02;62.06
74524;BME280;63074;44.696;10.358;2023-08-31T06:28:24;99858.19;;;31.32;59.23
74524;BME280;63074;44.696;10.358;2023-08-31T06:30:51;99855.53;;;31.43;56.93
74524;BME280;63074;44.696;10.358;2023-08-31T06:33:17;99851.91;;;31.39;56.37
74524;BME280;63074;44.696;10.358;2023-08-31T06:35:47;99857.06;;;31.77;56.04
74524;BME280;63074;44.696;10.358;2023-08-31T06:38:14;99876.72;;;31.25;59.45
74524;BME280;63074;44.696;10.358;2023-08-31T06:40:42;99871.34;;;31.72;57.63
74524;BME280;63074;44.696;10.358;2023-08-31T06:43:11;99884.38;;;31.68;58.57
74524;BME280;63074;44.696;10.358;2023-08-31T06:45:38;99880.50;;;31.80;57.47
74524;BME280;63074;44.696;10.358;2023-08-31T06:48:04;99914.03;;;30.71;62.38
74524;BME280;63074;44.696;10.358;2023-08-31T06:50:32;99905.84;;;31.08;60.30
74524;BME280;63074;44.696;10.358;2023-08-31T06:52:58;99874.78;;;32.06;55.09
74524;BME280;63074;44.696;10.358;2023-08-31T06:55:25;99861.91;;;32.28;54.04
74524;BME280;63074;44.696;10.358;2023-08-31T06:57:51;99904.09;;;31.26;59.99
74524;BME280;63074;44.696;10.358;2023-08-31T07:00:18;99887.31;;;31.86;55.78
74524;BME280;63074;44.696;10.358;2023-08-31T07:02:44;99880.16;;;31.85;55.77
74524;BME280;63074;44.696;10.358;2023-08-31T07:05:11;99909.97;;;31.54;57.55
74524;BME280;63074;44.696;10.358;2023-08-31T07:07:37;99924.81;;;30.76;62.57
74524;BME280;63074;44.696;10.358;2023-08-31T07:10:04;99934.84;;;30.84;62.93
74524;BME280;63074;44.696;10.358;2023-08-31T07:12:31;99925.66;;;30.80;59.86
74524;BME280;63074;44.696;10.358;2023-08-31T07:14:57;99947.72;;;30.73;65.18
74524;BME280;63074;44.696;10.358;2023-08-31T07:17:24;99931.41;;;31.54;61.26
74524;BME280;63074;44.696;10.358;2023-08-31T07:19:50;99912.22;;;32.16;56.16
74524;BME280;63074;44.696;10.358;2023-08-31T07:28:54;99904.06;;;32.88;53.52
74524;BME280;63074;44.696;10.358;2023-08-31T07:31:21;99900.97;;;33.11;52.47
74524;BME280;63074;44.696;10.358;2023-08-31T07:33:47;99897.09;;;33.27;51.21
74524;BME280;63074;44.696;10.358;2023-08-31T07:36:13;99876.97;;;33.94;48.30
74524;BME280;63074;44.696;10.358;2023-08-31T07:38:41;99888.03;;;33.58;48.20
74524;BME280;63074;44.696;10.358;2023-08-31T07:41:07;99878.97;;;34.00;47.85
74524;BME280;63074;44.696;10.358;2023-08-31T07:43:33;99900.16;;;33.07;49.38
74524;BME280;63074;44.696;10.358;2023-08-31T07:45:59;99884.94;;;33.84;47.96
74524;BME280;63074;44.696;10.358;2023-08-31T07:48:26;99905.88;;;33.36;48.64
74524;BME280;63074;44.696;10.358;2023-08-31T07:50:52;99913.91;;;33.48;49.50
74524;BME280;63074;44.696;10.358;2023-08-31T07:53:18;99927.81;;;32.24;52.61
74524;BME280;63074;44.696;10.358;2023-08-31T07:55:54;99948.03;;;32.72;53.98
74524;BME280;63074;44.696;10.358;2023-08-31T07:58:23;99923.13;;;32.86;51.62
74524;BME280;63074;44.696;10.358;2023-08-31T08:00:53;99939.13;;;33.04;52.28
74524;BME280;63074;44.696;10.358;2023-08-31T08:03:21;99957.22;;;33.42;53.25
74524;BME280;63074;44.696;10.358;2023-08-31T08:05:47;99917.22;;;34.21;49.11
74524;BME280;63074;44.696;10.358;2023-08-31T08:08:14;99937.06;;;33.84;49.55
74524;BME280;63074;44.696;10.358;2023-08-31T08:10:40;99936.31;;;34.01;49.52
74524;BME280;63074;44.696;10.358;2023-08-31T08:13:06;99933.91;;;33.89;49.36
74524;BME280;63074;44.696;10.358;2023-08-31T08:15:33;99914.00;;;33.94;48.39
74524;BME280;63074;44.696;10.358;2023-08-31T08:17:59;99925.16;;;34.08;48.75
74524;BME280;63074;44.696;10.358;2023-08-31T08:20:25;99914.44;;;34.46;48.59
74524;BME280;63074;44.696;10.358;2023-08-31T08:22:51;99919.22;;;34.24;48.02
74524;BME280;63074;44.696;10.358;2023-08-31T08:25:21;99928.00;;;34.37;47.88
74524;BME280;63074;44.696;10.358;2023-08-31T08:27:48;99903.94;;;35.17;45.93
74524;BME280;63074;44.696;10.358;2023-08-31T08:30:15;99951.59;;;33.31;51.48
74524;BME280;63074;44.696;10.358;2023-08-31T08:32:45;99950.25;;;33.98;51.11
74524;BME280;63074;44.696;10.358;2023-08-31T08:35:11;99954.06;;;33.50;52.24
74524;BME280;63074;44.696;10.358;2023-08-31T08:37:37;99963.19;;;33.40;52.28
74524;BME280;63074;44.696;10.358;2023-08-31T08:40:04;99955.69;;;33.55;51.65
74524;BME280;63074;44.696;10.358;2023-08-31T08:42:31;99938.75;;;34.45;48.85
74524;BME280;63074;44.696;10.358;2023-08-31T08:44:58;99945.44;;;33.84;49.76
74524;BME280;63074;44.696;10.358;2023-08-31T08:47:26;99962.53;;;33.75;51.79
74524;BME280;63074;44.696;10.358;2023-08-31T08:49:54;99975.59;;;33.57;52.13
74524;BME280;63074;44.696;10.358;2023-08-31T08:52:21;99974.75;;;33.53;53.54
74524;BME280;63074;44.696;10.358;2023-08-31T08:54:49;99947.41;;;35.18;48.85
74524;BME280;63074;44.696;10.358;2023-08-31T08:57:15;99938.19;;;35.36;47.78
74524;BME280;63074;44.696;10.358;2023-08-31T08:59:42;99933.28;;;35.61;48.00
74524;BME280;63074;44.696;10.358;2023-08-31T09:02:10;99934.09;;;35.54;47.79
74524;BME280;63074;44.696;10.358;2023-08-31T09:04:38;99937.94;;;34.80;47.94
74524;BME280;63074;44.696;10.358;2023-08-31T09:07:04;99965.06;;;34.62;50.81
74524;BME280;63074;44.696;10.358;2023-08-31T09:09:30;99982.44;;;33.81;51.60
74524;BME280;63074;44.696;10.358;2023-08-31T09:11:56;99954.66;;;34.95;49.15
74524;BME280;63074;44.696;10.358;2023-08-31T09:14:31;99955.81;;;35.08;49.06
74524;BME280;63074;44.696;10.358;2023-08-31T09:16:57;99986.50;;;34.12;52.70
74524;BME280;63074;44.696;10.358;2023-08-31T09:19:25;100016.66;;;33.74;58.09
74524;BME280;63074;44.696;10.358;2023-08-31T09:21:56;99992.66;;;33.52;55.32
74524;BME280;63074;44.696;10.358;2023-08-31T09:24:23;99970.25;;;34.57;52.33
74524;BME280;63074;44.696;10.358;2023-08-31T09:26:57;99967.78;;;35.15;50.94
74524;BME280;63074;44.696;10.358;2023-08-31T09:29:24;99964.09;;;35.43;50.07
74524;BME280;63074;44.696;10.358;2023-08-31T09:31:50;99947.28;;;36.27;47.69
74524;BME280;63074;44.696;10.358;2023-08-31T09:34:18;99977.78;;;34.24;51.73
74524;BME280;63074;44.696;10.358;2023-08-31T09:36:44;99953.59;;;35.79;47.43
74524;BME280;63074;44.696;10.358;2023-08-31T09:39:12;99965.00;;;35.08;49.93
74524;BME280;63074;44.696;10.358;2023-08-31T09:41:55;99937.72;;;36.17;45.43
74524;BME280;63074;44.696;10.358;2023-08-31T09:44:22;99933.78;;;36.63;45.65
74524;BME280;63074;44.696;10.358;2023-08-31T09:46:48;99940.75;;;35.82;46.87
74524;BME280;63074;44.696;10.358;2023-08-31T09:49:18;99964.50;;;35.42;49.36
74524;BME280;63074;44.696;10.358;2023-08-31T09:51:48;99952.91;;;35.47;47.03
74524;BME280;63074;44.696;10.358;2023-08-31T09:54:19;99930.50;;;37.09;44.87
74524;BME280;63074;44.696;10.358;2023-08-31T09:56:46;99945.06;;;35.97;46.87
74524;BME280;63074;44.696;10.358;2023-08-31T09:59:14;99962.91;;;35.41;48.40
74524;BME280;63074;44.696;10.358;2023-08-31T10:01:43;99942.13;;;36.67;46.00
74524;BME280;63074;44.696;10.358;2023-08-31T10:04:10;99939.81;;;36.99;44.81
74524;BME280;63074;44.696;10.358;2023-08-31T10:06:42;99923.22;;;37.49;43.02
74524;BME280;63074;44.696;10.358;2023-08-31T10:09:09;99913.38;;;37.68;42.15
74524;BME280;63074;44.696;10.358;2023-08-31T10:11:41;99930.19;;;37.68;42.81
74524;BME280;63074;44.696;10.358;2023-08-31T10:14:11;99915.81;;;37.32;42.55
74524;BME280;63074;44.696;10.358;2023-08-31T10:16:44;99911.47;;;38.62;41.41
74524;BME280;63074;44.696;10.358;2023-08-31T10:19:11;99919.69;;;36.74;42.07
74524;BME280;63074;44.696;10.358;2023-08-31T10:21:37;99900.56;;;38.68;41.21
74524;BME280;63074;44.696;10.358;2023-08-31T10:24:05;99902.78;;;37.79;41.32
74524;BME280;63074;44.696;10.358;2023-08-31T10:26:32;99922.25;;;38.17;42.06
74524;BME280;63074;44.696;10.358;2023-08-31T10:28:59;99899.78;;;37.67;40.38
74524;BME280;63074;44.696;10.358;2023-08-31T10:31:47;99907.81;;;37.92;41.76
74524;BME280;63074;44.696;10.358;2023-08-31T10:34:15;99911.75;;;38.44;41.37
74524;BME280;63074;44.696;10.358;2023-08-31T10:36:45;99928.72;;;37.57;43.76
74524;BME280;63074;44.696;10.358;2023-08-31T10:39:14;99901.34;;;37.95;40.84
74524;BME280;63074;44.696;10.358;2023-08-31T10:41:42;99904.31;;;39.01;41.04
74524;BME280;63074;44.696;10.358;2023-08-31T10:44:22;99899.91;;;39.00;40.18
74524;BME280;63074;44.696;10.358;2023-08-31T10:46:49;99897.69;;;38.91;41.02
74524;BME280;63074;44.696;10.358;2023-08-31T10:49:17;99920.72;;;37.55;42.78
74524;BME280;63074;44.696;10.358;2023-08-31T10:51:57;99899.31;;;38.22;40.27
74524;BME280;63074;44.696;10.358;2023-08-31T10:54:30;99925.00;;;37.63;42.62
74524;BME280;63074;44.696;10.358;2023-08-31T10:59:27;99920.97;;;37.95;41.44
74524;BME280;63074;44.696;10.358;2023-08-31T11:02:07;99896.78;;;38.74;40.41
74524;BME280;63074;44.696;10.358;2023-08-31T11:04:53;99883.38;;;39.25;39.07
74524;BME280;63074;44.696;10.358;2023-08-31T11:07:24;99882.53;;;39.80;38.40
74524;BME280;63074;44.696;10.358;2023-08-31T11:09:50;99894.25;;;39.03;39.61
74524;BME280;63074;44.696;10.358;2023-08-31T11:12:17;99879.91;;;38.98;38.96
74524;BME280;63074;44.696;10.358;2023-08-31T11:14:43;99878.78;;;38.72;38.83
74524;BME280;63074;44.696;10.358;2023-08-31T11:17:09;99896.44;;;38.49;40.76
74524;BME280;63074;44.696;10.358;2023-08-31T11:19:37;99866.84;;;39.47;38.66
74524;BME280;63074;44.696;10.358;2023-08-31T11:22:04;99879.41;;;39.23;40.20
74524;BME280;63074;44.696;10.358;2023-08-31T11:24:32;99868.31;;;38.96;39.66
74524;BME280;63074;44.696;10.358;2023-08-31T11:26:59;99882.19;;;38.16;39.72
74524;BME280;63074;44.696;10.358;2023-08-31T11:29:25;99890.34;;;37.23;40.71
74524;BME280;63074;44.696;10.358;2023-08-31T11:31:52;99884.75;;;38.31;39.96
74524;BME280;63074;44.696;10.358;2023-08-31T11:34:19;99867.50;;;38.32;38.69
74524;BME280;63074;44.696;10.358;2023-08-31T11:36:47;99894.88;;;37.98;40.18
74524;BME280;63074;44.696;10.358;2023-08-31T11:39:13;99884.44;;;37.44;40.02
74524;BME280;63074;44.696;10.358;2023-08-31T11:41:41;99926.56;;;36.14;45.35
74524;BME280;63074;44.696;10.358;2023-08-31T11:44:09;99929.13;;;35.91;46.31
74524;BME280;63074;44.696;10.358;2023-08-31T11:46:37;99965.00;;;34.98;51.23
74524;BME280;63074;44.696;10.358;2023-08-31T11:49:03;99946.06;;;36.28;47.46
74524;BME280;63074;44.696;10.358;2023-08-31T11:51:34;99936.09;;;36.20;47.25
74524;BME280;63074;44.696;10.358;2023-08-31T11:54:01;99958.38;;;35.75;50.26
74524;BME280;63074;44.696;10.358;2023-08-31T11:56:38;99952.50;;;36.25;48.98
74524;BME280;63074;44.696;10.358;2023-08-31T11:59:10;99974.88;;;35.45;53.18
74524;BME280;63074;44.696;10.358;2023-08-31T12:01:42;99991.66;;;35.27;54.35
74524;BME280;63074;44.696;10.358;2023-08-31T12:04:21;100009.31;;;34.60;61.33
74524;BME280;63074;44.696;10.358;2023-08-31T12:06:52;100015.97;;;34.02;59.00
74524;BME280;63074;44.696;10.358;2023-08-31T12:09:20;100059.31;;;32.72;72.34
74524;BME280;63074;44.696;10.358;2023-08-31T12:11:51;100091.84;;;33.09;75.41
74524;BME280;63074;44.696;10.358;2023-08-31T12:14:24;100089.22;;;33.27;73.58
74524;BME280;63074;44.696;10.358;2023-08-31T12:16:51;100076.97;;;32.46;74.08
74524;BME280;63074;44.696;10.358;2023-08-31T12:19:18;100107.47;;;32.39;81.79
74524;BME280;63074;44.696;10.358;2023-08-31T12:21:45;100094.28;;;31.99;82.91
74524;BME280;63074;44.696;10.358;2023-08-31T12:24:12;100102.78;;;31.53;80.58
74524;BME280;63074;44.696;10.358;2023-08-31T12:26:41;100139.72;;;31.31;88.86
74524;BME280;63074;44.696;10.358;2023-08-31T12:29:08;100132.44;;;32.02;88.11
74524;BME280;63074;44.696;10.358;2023-08-31T12:31:34;100122.50;;;31.45;84.05
74524;BME280;63074;44.696;10.358;2023-08-31T12:34:00;100126.31;;;31.63;84.93
74524;BME280;63074;44.696;10.358;2023-08-31T12:36:30;100093.03;;;33.63;76.74
74524;BME280;63074;44.696;10.358;2023-08-31T12:38:57;100101.69;;;33.43;76.75
74524;BME280;63074;44.696;10.358;2023-08-31T12:41:24;100101.16;;;32.42;80.54
74524;BME280;63074;44.696;10.358;2023-08-31T12:43:50;100079.94;;;32.68;75.14
74524;BME280;63074;44.696;10.358;2023-08-31T12:46:17;100083.63;;;32.38;77.57
74524;BME280;63074;44.696;10.358;2023-08-31T12:48:43;100058.38;;;33.60;71.67
74524;BME280;63074;44.696;10.358;2023-08-31T12:51:09;100041.13;;;35.27;68.02
74524;BME280;63074;44.696;10.358;2023-08-31T12:53:39;100014.06;;;34.38;61.98
74524;BME280;63074;44.696;10.358;2023-08-31T12:56:05;100022.84;;;34.69;64.34
74524;BME280;63074;44.696;10.358;2023-08-31T12:58:32;99987.25;;;36.20;56.66
74524;BME280;63074;44.696;10.358;2023-08-31T13:01:01;99952.56;;;37.04;53.05
74524;BME280;63074;44.696;10.358;2023-08-31T13:03:27;99968.47;;;36.21;53.19
74524;BME280;63074;44.696;10.358;2023-08-31T13:05:54;99974.28;;;36.48;53.19
74524;BME280;63074;44.696;10.358;2023-08-31T13:08:20;99944.09;;;37.11;50.22
74524;BME280;63074;44.696;10.358;2023-08-31T13:10:53;99936.31;;;37.56;48.51